sensor_id;sensor_type;location;lat;lon;timestamp;P1;durP1;ratioP1;P2;durP2;ratioP2
2638;SDS011;1329;51.384;7.122;2024-01-30T00:00:06;7.17;;;6.53;;
2638;SDS011;1329;51.384;7.122;2024-01-30T00:02:35;7.93;;;6.77;;
2638;SDS011;1329;51.384;7.122;2024-01-30T00:05:05;7.97;;;6.60;;
2638;SDS011;1329;51.384;7.122;2024-01-30T00:07:33;7.80;;;7.00;;
2638;SDS011;1329;51.384;7.122;2024-01-30T00:10:00;7.47;;;6.77;;
2638;SDS011;1329;51.384;7.122;2024-01-30T00:12:28;7.67;;;6.97;;
2638;SDS011;1329;51.384;7.122;2024-01-30T00:14:56;8.30;;;7.37;;
2638;SDS011;1329;51.384;7.122;2024-01-30T00:17:24;7.70;;;6.90;;
2638;SDS011;1329;51.384;7.122;2024-01-30T00:19:51;8.70;;;7.40;;
2638;SDS011;1329;51.384;7.122;2024-01-30T00:22:20;7.97;;;7.20;;
2638;SDS011;1329;51.384;7.122;2024-01-30T00:24:48;8.93;;;8.03;;
2638;SDS011;1329;51.384;7.122;2024-01-30T00:27:15;8.10;;;7.30;;
2638;SDS011;1329;51.384;7.122;2024-01-30T00:29:43;8.20;;;7.50;;
2638;SDS011;1329;51.384;7.122;2024-01-30T00:32:10;8.27;;;7.47;;
2638;SDS011;1329;51.384;7.122;2024-01-30T00:34:38;8.33;;;7.40;;
2638;SDS011;1329;51.384;7.122;2024-01-30T00:37:05;8.20;;;7.40;;
2638;SDS011;1329;51.384;7.122;2024-01-30T00:39:34;7.23;;;6.53;;
2638;SDS011;1329;51.384;7.122;2024-01-30T00:42:02;7.47;;;6.77;;
2638;SDS011;1329;51.384;7.122;2024-01-30T00:44:30;7.33;;;6.63;;
2638;SDS011;1329;51.384;7.122;2024-01-30T00:46:58;7.73;;;6.93;;
2638;SDS011;1329;51.384;7.122;2024-01-30T00:49:29;7.53;;;6.83;;
2638;SDS011;1329;51.384;7.122;2024-01-30T00:51:57;7.77;;;7.03;;
2638;SDS011;1329;51.384;7.122;2024-01-30T00:54:24;7.70;;;7.00;;
2638;SDS011;1329;51.384;7.122;2024-01-30T00:56:53;7.63;;;6.93;;
2638;SDS011;1329;51.384;7.122;2024-01-30T00:59:23;7.80;;;7.10;;
2638;SDS011;1329;51.384;7.122;2024-01-30T01:01:51;7.57;;;6.87;;
2638;SDS011;1329;51.384;7.122;2024-01-30T01:04:19;7.47;;;6.77;;
2638;SDS011;1329;51.384;7.122;2024-01-30T01:06:47;7.73;;;7.00;;
2638;SDS011;1329;51.384;7.122;2024-01-30T01:09:14;7.67;;;6.87;;
2638;SDS011;1329;51.384;7.122;2024-01-30T01:11:41;8.47;;;7.13;;
2638;SDS011;1329;51.384;7.122;2024-01-30T01:14:10;7.60;;;6.90;;
2638;SDS011;1329;51.384;7.122;2024-01-30T01:16:38;7.67;;;6.97;;
2638;SDS011;1329;51.384;7.122;2024-01-30T01:19:06;7.77;;;6.97;;
2638;SDS011;1329;51.384;7.122;2024-01-30T01:21:33;7.53;;;6.60;;
2638;SDS011;1329;51.384;7.122;2024-01-30T01:24:01;7.73;;;6.97;;
2638;SDS011;1329;51.384;7.122;2024-01-30T01:26:29;7.93;;;7.03;;
2638;SDS011;1329;51.384;7.122;2024-01-30T01:28:56;7.93;;;6.93;;
2638;SDS011;1329;51.384;7.122;2024-01-30T01:31:25;7.73;;;6.67;;
2638;SDS011;1329;51.384;7.122;2024-01-30T01:33:54;8.37;;;7.27;;
2638;SDS011;1329;51.384;7.122;2024-01-30T01:36:22;7.50;;;6.70;;
2638;SDS011;1329;51.384;7.122;2024-01-30T01:38:50;7.77;;;7.07;;
2638;SDS011;1329;51.384;7.122;2024-01-30T01:41:17;8.00;;;7.20;;
2638;SDS011;1329;51.384;7.122;2024-01-30T01:43:45;7.87;;;7.17;;
2638;SDS011;1329;51.384;7.122;2024-01-30T01:46:12;7.70;;;6.73;;
2638;SDS011;1329;51.384;7.122;2024-01-30T01:48:41;7.70;;;6.90;;
2638;SDS011;1329;51.384;7.122;2024-01-30T01:51:10;7.50;;;6.80;;
2638;SDS011;1329;51.384;7.122;2024-01-30T01:53:38;7.60;;;6.90;;
2638;SDS011;1329;51.384;7.122;2024-01-30T01:56:06;8.13;;;7.13;;
2638;SDS011;1329;51.384;7.122;2024-01-30T01:58:34;7.47;;;6.70;;
2638;SDS011;1329;51.384;7.122;2024-01-30T02:01:02;8.37;;;7.57;;
2638;SDS011;1329;51.384;7.122;2024-01-30T02:03:31;7.83;;;7.03;;
2638;SDS011;1329;51.384;7.122;2024-01-30T02:06:00;8.63;;;6.67;;
2638;SDS011;1329;51.384;7.122;2024-01-30T02:08:29;8.03;;;7.23;;
2638;SDS011;1329;51.384;7.122;2024-01-30T02:10:57;7.87;;;7.17;;
2638;SDS011;1329;51.384;7.122;2024-01-30T02:13:25;8.27;;;7.27;;
2638;SDS011;1329;51.384;7.122;2024-01-30T02:15:52;8.80;;;7.47;;
2638;SDS011;1329;51.384;7.122;2024-01-30T02:18:20;8.30;;;7.50;;
2638;SDS011;1329;51.384;7.122;2024-01-30T02:20:48;7.97;;;7.17;;
2638;SDS011;1329;51.384;7.122;2024-01-30T02:23:19;7.77;;;6.97;;
2638;SDS011;1329;51.384;7.122;2024-01-30T02:25:47;9.43;;;7.67;;
2638;SDS011;1329;51.384;7.122;2024-01-30T02:28:14;8.37;;;6.97;;
2638;SDS011;1329;51.384;7.122;2024-01-30T02:30:42;8.10;;;7.40;;
2638;SDS011;1329;51.384;7.122;2024-01-30T02:33:10;7.70;;;6.87;;
2638;SDS011;1329;51.384;7.122;2024-01-30T02:35:37;7.73;;;7.03;;
2638;SDS011;1329;51.384;7.122;2024-01-30T02:38:05;7.70;;;7.00;;
2638;SDS011;1329;51.384;7.122;2024-01-30T02:40:34;8.20;;;7.40;;
2638;SDS011;1329;51.384;7.122;2024-01-30T02:43:05;8.33;;;7.20;;
2638;SDS011;1329;51.384;7.122;2024-01-30T02:45:32;7.30;;;6.60;;
2638;SDS011;1329;51.384;7.122;2024-01-30T02:48:00;7.97;;;7.23;;
2638;SDS011;1329;51.384;7.122;2024-01-30T02:50:28;7.67;;;6.73;;
2638;SDS011;1329;51.384;7.122;2024-01-30T02:52:55;7.83;;;7.00;;
2638;SDS011;1329;51.384;7.122;2024-01-30T02:55:22;7.73;;;6.93;;
2638;SDS011;1329;51.384;7.122;2024-01-30T02:57:52;8.30;;;7.50;;
2638;SDS011;1329;51.384;7.122;2024-01-30T03:00:19;8.43;;;7.53;;
2638;SDS011;1329;51.384;7.122;2024-01-30T03:02:46;7.77;;;6.97;;
2638;SDS011;1329;51.384;7.122;2024-01-30T03:05:13;8.73;;;7.50;;
2638;SDS011;1329;51.384;7.122;2024-01-30T03:07:40;8.33;;;6.90;;
2638;SDS011;1329;51.384;7.122;2024-01-30T03:10:07;8.20;;;7.40;;
2638;SDS011;1329;51.384;7.122;2024-01-30T03:12:35;7.63;;;6.80;;
2638;SDS011;1329;51.384;7.122;2024-01-30T03:15:06;8.37;;;7.50;;
2638;SDS011;1329;51.384;7.122;2024-01-30T03:17:34;7.80;;;7.00;;
2638;SDS011;1329;51.384;7.122;2024-01-30T03:20:02;8.20;;;7.13;;
2638;SDS011;1329;51.384;7.122;2024-01-30T03:22:31;8.30;;;6.83;;
2638;SDS011;1329;51.384;7.122;2024-01-30T03:24:58;7.43;;;6.83;;
2638;SDS011;1329;51.384;7.122;2024-01-30T03:27:25;7.90;;;7.10;;
2638;SDS011;1329;51.384;7.122;2024-01-30T03:29:52;7.90;;;7.20;;
2638;SDS011;1329;51.384;7.122;2024-01-30T03:32:20;7.53;;;6.73;;
2638;SDS011;1329;51.384;7.122;2024-01-30T03:34:47;6.73;;;6.13;;
2638;SDS011;1329;51.384;7.122;2024-01-30T03:37:14;7.30;;;6.60;;
2638;SDS011;1329;51.384;7.122;2024-01-30T03:39:41;7.10;;;6.40;;
2638;SDS011;1329;51.384;7.122;2024-01-30T03:42:07;6.87;;;6.27;;
2638;SDS011;1329;51.384;7.122;2024-01-30T03:44:34;6.80;;;6.17;;
2638;SDS011;1329;51.384;7.122;2024-01-30T03:47:01;7.07;;;6.37;;
2638;SDS011;1329;51.384;7.122;2024-01-30T03:49:30;6.70;;;6.10;;
2638;SDS011;1329;51.384;7.122;2024-01-30T03:51:57;6.87;;;6.17;;
2638;SDS011;1329;51.384;7.122;2024-01-30T03:54:24;7.90;;;6.80;;
2638;SDS011;1329;51.384;7.122;2024-01-30T03:56:50;7.57;;;6.57;;
2638;SDS011;1329;51.384;7.122;2024-01-30T03:59:17;7.47;;;6.27;;
2638;SDS011;1329;51.384;7.122;2024-01-30T04:01:49;6.70;;;6.07;;
2638;SDS011;1329;51.384;7.122;2024-01-30T04:04:16;6.47;;;5.87;;
2638;SDS011;1329;51.384;7.122;2024-01-30T04:06:45;6.80;;;6.13;;
2638;SDS011;1329;51.384;7.122;2024-01-30T04:09:12;6.77;;;6.17;;
2638;SDS011;1329;51.384;7.122;2024-01-30T04:11:39;7.33;;;6.07;;
2638;SDS011;1329;51.384;7.122;2024-01-30T04:14:06;6.40;;;5.63;;
2638;SDS011;1329;51.384;7.122;2024-01-30T04:16:33;6.77;;;6.07;;
2638;SDS011;1329;51.384;7.122;2024-01-30T04:19:01;6.77;;;5.73;;
2638;SDS011;1329;51.384;7.122;2024-01-30T04:21:28;6.90;;;5.77;;
2638;SDS011;1329;51.384;7.122;2024-01-30T04:23:56;6.10;;;5.60;;
2638;SDS011;1329;51.384;7.122;2024-01-30T04:26:23;7.27;;;6.00;;
2638;SDS011;1329;51.384;7.122;2024-01-30T04:28:50;6.37;;;5.77;;
2638;SDS011;1329;51.384;7.122;2024-01-30T04:31:16;5.87;;;5.37;;
2638;SDS011;1329;51.384;7.122;2024-01-30T04:33:44;6.37;;;5.73;;
2638;SDS011;1329;51.384;7.122;2024-01-30T04:36:10;5.93;;;5.33;;
2638;SDS011;1329;51.384;7.122;2024-01-30T04:38:37;6.13;;;5.53;;
2638;SDS011;1329;51.384;7.122;2024-01-30T04:41:06;6.47;;;5.47;;
2638;SDS011;1329;51.384;7.122;2024-01-30T04:43:33;6.53;;;5.57;;
2638;SDS011;1329;51.384;7.122;2024-01-30T04:46:01;6.77;;;5.77;;
2638;SDS011;1329;51.384;7.122;2024-01-30T04:48:27;5.90;;;5.30;;
2638;SDS011;1329;51.384;7.122;2024-01-30T04:50:54;6.10;;;5.50;;
2638;SDS011;1329;51.384;7.122;2024-01-30T04:53:21;7.23;;;5.40;;
2638;SDS011;1329;51.384;7.122;2024-01-30T04:55:48;6.37;;;5.77;;
2638;SDS011;1329;51.384;7.122;2024-01-30T04:58:17;7.17;;;5.70;;
2638;SDS011;1329;51.384;7.122;2024-01-30T05:00:46;6.50;;;5.70;;
2638;SDS011;1329;51.384;7.122;2024-01-30T05:03:16;6.20;;;5.60;;
2638;SDS011;1329;51.384;7.122;2024-01-30T05:05:43;6.10;;;5.53;;
2638;SDS011;1329;51.384;7.122;2024-01-30T05:08:10;5.97;;;5.47;;
2638;SDS011;1329;51.384;7.122;2024-01-30T05:10:37;6.07;;;5.47;;
2638;SDS011;1329;51.384;7.122;2024-01-30T05:13:04;6.17;;;5.53;;
2638;SDS011;1329;51.384;7.122;2024-01-30T05:15:32;6.17;;;5.57;;
2638;SDS011;1329;51.384;7.122;2024-01-30T05:17:59;5.70;;;5.10;;
2638;SDS011;1329;51.384;7.122;2024-01-30T05:20:26;6.77;;;5.53;;
2638;SDS011;1329;51.384;7.122;2024-01-30T05:22:53;6.40;;;5.80;;
2638;SDS011;1329;51.384;7.122;2024-01-30T05:25:20;6.13;;;5.53;;
2638;SDS011;1329;51.384;7.122;2024-01-30T05:27:48;5.97;;;5.40;;
2638;SDS011;1329;51.384;7.122;2024-01-30T05:30:15;5.63;;;5.13;;
2638;SDS011;1329;51.384;7.122;2024-01-30T05:32:44;5.90;;;5.40;;
2638;SDS011;1329;51.384;7.122;2024-01-30T05:35:11;6.90;;;6.20;;
2638;SDS011;1329;51.384;7.122;2024-01-30T05:37:38;6.27;;;5.67;;
2638;SDS011;1329;51.384;7.122;2024-01-30T05:40:05;5.73;;;5.23;;
2638;SDS011;1329;51.384;7.122;2024-01-30T05:42:34;6.10;;;5.30;;
2638;SDS011;1329;51.384;7.122;2024-01-30T05:45:00;6.20;;;5.60;;
2638;SDS011;1329;51.384;7.122;2024-01-30T05:47:27;5.80;;;5.30;;
2638;SDS011;1329;51.384;7.122;2024-01-30T05:49:56;6.07;;;5.47;;
2638;SDS011;1329;51.384;7.122;2024-01-30T05:52:23;6.30;;;5.70;;
2638;SDS011;1329;51.384;7.122;2024-01-30T05:54:50;6.20;;;5.70;;
2638;SDS011;1329;51.384;7.122;2024-01-30T05:57:17;5.83;;;5.33;;
2638;SDS011;1329;51.384;7.122;2024-01-30T05:59:44;6.03;;;5.50;;
2638;SDS011;1329;51.384;7.122;2024-01-30T06:02:12;6.67;;;6.00;;
2638;SDS011;1329;51.384;7.122;2024-01-30T06:04:39;6.37;;;5.77;;
2638;SDS011;1329;51.384;7.122;2024-01-30T06:07:08;6.60;;;6.00;;
2638;SDS011;1329;51.384;7.122;2024-01-30T06:09:34;6.37;;;5.77;;
2638;SDS011;1329;51.384;7.122;2024-01-30T06:12:01;6.30;;;5.70;;
2638;SDS011;1329;51.384;7.122;2024-01-30T06:14:30;6.03;;;5.43;;
2638;SDS011;1329;51.384;7.122;2024-01-30T06:16:57;5.67;;;5.10;;
2638;SDS011;1329;51.384;7.122;2024-01-30T06:19:24;6.93;;;5.70;;
2638;SDS011;1329;51.384;7.122;2024-01-30T06:21:51;6.87;;;5.47;;
2638;SDS011;1329;51.384;7.122;2024-01-30T06:24:20;6.73;;;5.43;;
2638;SDS011;1329;51.384;7.122;2024-01-30T06:26:47;6.90;;;5.57;;
2638;SDS011;1329;51.384;7.122;2024-01-30T06:29:13;6.57;;;5.43;;
2638;SDS011;1329;51.384;7.122;2024-01-30T06:31:41;6.07;;;5.47;;
2638;SDS011;1329;51.384;7.122;2024-01-30T06:34:09;6.10;;;5.53;;
2638;SDS011;1329;51.384;7.122;2024-01-30T06:36:37;6.40;;;5.80;;
2638;SDS011;1329;51.384;7.122;2024-01-30T06:39:04;6.40;;;5.50;;
2638;SDS011;1329;51.384;7.122;2024-01-30T06:41:32;6.07;;;5.47;;
2638;SDS011;1329;51.384;7.122;2024-01-30T06:44:01;6.00;;;5.37;;
2638;SDS011;1329;51.384;7.122;2024-01-30T06:46:29;7.20;;;5.57;;
2638;SDS011;1329;51.384;7.122;2024-01-30T06:48:56;6.00;;;5.40;;
2638;SDS011;1329;51.384;7.122;2024-01-30T06:51:22;5.87;;;5.33;;
2638;SDS011;1329;51.384;7.122;2024-01-30T06:53:49;5.40;;;4.90;;
2638;SDS011;1329;51.384;7.122;2024-01-30T06:56:16;5.50;;;5.03;;
2638;SDS011;1329;51.384;7.122;2024-01-30T06:58:47;5.40;;;4.90;;
2638;SDS011;1329;51.384;7.122;2024-01-30T07:01:14;5.80;;;5.17;;
2638;SDS011;1329;51.384;7.122;2024-01-30T07:03:40;6.30;;;5.10;;
2638;SDS011;1329;51.384;7.122;2024-01-30T07:06:08;6.10;;;5.37;;
2638;SDS011;1329;51.384;7.122;2024-01-30T07:08:35;6.10;;;5.50;;
2638;SDS011;1329;51.384;7.122;2024-01-30T07:11:03;5.43;;;4.93;;
2638;SDS011;1329;51.384;7.122;2024-01-30T07:13:31;5.67;;;5.10;;
2638;SDS011;1329;51.384;7.122;2024-01-30T07:15:59;6.13;;;5.17;;
2638;SDS011;1329;51.384;7.122;2024-01-30T07:18:26;7.07;;;5.57;;
2638;SDS011;1329;51.384;7.122;2024-01-30T07:20:53;6.33;;;5.73;;
2638;SDS011;1329;51.384;7.122;2024-01-30T07:23:20;5.90;;;5.30;;
2638;SDS011;1329;51.384;7.122;2024-01-30T07:25:47;5.83;;;5.23;;
2638;SDS011;1329;51.384;7.122;2024-01-30T07:28:14;6.03;;;5.43;;
2638;SDS011;1329;51.384;7.122;2024-01-30T07:30:42;5.90;;;5.30;;
2638;SDS011;1329;51.384;7.122;2024-01-30T07:33:11;6.07;;;5.47;;
2638;SDS011;1329;51.384;7.122;2024-01-30T07:35:37;5.67;;;5.17;;
2638;SDS011;1329;51.384;7.122;2024-01-30T07:38:05;5.90;;;5.40;;
2638;SDS011;1329;51.384;7.122;2024-01-30T07:40:31;6.33;;;5.43;;
2638;SDS011;1329;51.384;7.122;2024-01-30T07:42:59;5.77;;;5.27;;
2638;SDS011;1329;51.384;7.122;2024-01-30T07:45:28;6.83;;;5.80;;
2638;SDS011;1329;51.384;7.122;2024-01-30T07:47:57;5.80;;;5.10;;
2638;SDS011;1329;51.384;7.122;2024-01-30T07:50:27;6.40;;;5.20;;
2638;SDS011;1329;51.384;7.122;2024-01-30T07:52:55;5.87;;;5.27;;
2638;SDS011;1329;51.384;7.122;2024-01-30T07:55:22;6.00;;;5.50;;
2638;SDS011;1329;51.384;7.122;2024-01-30T07:57:49;6.23;;;5.60;;
2638;SDS011;1329;51.384;7.122;2024-01-30T08:00:18;6.10;;;5.50;;
2638;SDS011;1329;51.384;7.122;2024-01-30T08:02:45;6.00;;;5.33;;
2638;SDS011;1329;51.384;7.122;2024-01-30T08:05:12;5.43;;;4.97;;
2638;SDS011;1329;51.384;7.122;2024-01-30T08:07:41;5.70;;;5.20;;
2638;SDS011;1329;51.384;7.122;2024-01-30T08:10:09;5.60;;;5.10;;
2638;SDS011;1329;51.384;7.122;2024-01-30T08:12:38;7.30;;;5.30;;
2638;SDS011;1329;51.384;7.122;2024-01-30T08:15:05;5.37;;;4.93;;
2638;SDS011;1329;51.384;7.122;2024-01-30T08:17:32;5.43;;;5.03;;
2638;SDS011;1329;51.384;7.122;2024-01-30T08:19:59;6.50;;;5.73;;
2638;SDS011;1329;51.384;7.122;2024-01-30T08:22:26;5.77;;;5.13;;
2638;SDS011;1329;51.384;7.122;2024-01-30T08:24:54;5.90;;;5.20;;
2638;SDS011;1329;51.384;7.122;2024-01-30T08:27:21;5.63;;;5.13;;
2638;SDS011;1329;51.384;7.122;2024-01-30T08:29:48;5.67;;;4.90;;
2638;SDS011;1329;51.384;7.122;2024-01-30T08:32:15;6.23;;;5.10;;
2638;SDS011;1329;51.384;7.122;2024-01-30T08:34:42;5.70;;;5.20;;
2638;SDS011;1329;51.384;7.122;2024-01-30T08:37:09;5.10;;;4.60;;
2638;SDS011;1329;51.384;7.122;2024-01-30T08:39:37;5.27;;;4.77;;
2638;SDS011;1329;51.384;7.122;2024-01-30T08:42:06;5.47;;;4.97;;
2638;SDS011;1329;51.384;7.122;2024-01-30T08:44:33;5.70;;;5.10;;
2638;SDS011;1329;51.384;7.122;2024-01-30T08:46:59;5.73;;;5.13;;
2638;SDS011;1329;51.384;7.122;2024-01-30T08:49:25;6.07;;;5.43;;
2638;SDS011;1329;51.384;7.122;2024-01-30T08:51:52;6.07;;;5.07;;
2638;SDS011;1329;51.384;7.122;2024-01-30T08:54:19;5.63;;;5.13;;
2638;SDS011;1329;51.384;7.122;2024-01-30T08:56:46;5.30;;;4.90;;
2638;SDS011;1329;51.384;7.122;2024-01-30T08:59:14;6.03;;;5.23;;
2638;SDS011;1329;51.384;7.122;2024-01-30T09:01:42;5.67;;;5.13;;
2638;SDS011;1329;51.384;7.122;2024-01-30T09:04:08;5.70;;;5.20;;
2638;SDS011;1329;51.384;7.122;2024-01-30T09:06:36;5.63;;;5.13;;
2638;SDS011;1329;51.384;7.122;2024-01-30T09:09:04;5.70;;;5.20;;
2638;SDS011;1329;51.384;7.122;2024-01-30T09:11:31;6.03;;;5.43;;
2638;SDS011;1329;51.384;7.122;2024-01-30T09:13:58;6.50;;;5.47;;
2638;SDS011;1329;51.384;7.122;2024-01-30T09:16:26;5.80;;;5.23;;
2638;SDS011;1329;51.384;7.122;2024-01-30T09:18:53;7.25;;;4.85;;
2638;SDS011;1329;51.384;7.122;2024-01-30T09:21:20;6.20;;;5.47;;
2638;SDS011;1329;51.384;7.122;2024-01-30T09:23:48;6.63;;;5.93;;
2638;SDS011;1329;51.384;7.122;2024-01-30T09:26:15;6.03;;;5.43;;
2638;SDS011;1329;51.384;7.122;2024-01-30T09:28:42;6.23;;;5.63;;
2638;SDS011;1329;51.384;7.122;2024-01-30T09:31:11;6.17;;;5.10;;
2638;SDS011;1329;51.384;7.122;2024-01-30T09:33:40;5.83;;;5.27;;
2638;SDS011;1329;51.384;7.122;2024-01-30T09:36:09;6.00;;;5.47;;
2638;SDS011;1329;51.384;7.122;2024-01-30T09:38:36;5.93;;;5.33;;
2638;SDS011;1329;51.384;7.122;2024-01-30T09:41:03;6.03;;;5.43;;
2638;SDS011;1329;51.384;7.122;2024-01-30T09:43:35;6.43;;;5.23;;
2638;SDS011;1329;51.384;7.122;2024-01-30T09:46:04;6.33;;;5.73;;
2638;SDS011;1329;51.384;7.122;2024-01-30T09:48:34;6.07;;;5.55;;
2638;SDS011;1329;51.384;7.122;2024-01-30T09:51:02;5.82;;;5.25;;
2638;SDS011;1329;51.384;7.122;2024-01-30T09:53:30;6.10;;;5.40;;
2638;SDS011;1329;51.384;7.122;2024-01-30T09:55:57;6.60;;;5.80;;
2638;SDS011;1329;51.384;7.122;2024-01-30T09:58:24;6.07;;;5.47;;
2638;SDS011;1329;51.384;7.122;2024-01-30T10:00:51;6.30;;;5.60;;
2638;SDS011;1329;51.384;7.122;2024-01-30T10:03:18;6.45;;;5.72;;
2638;SDS011;1329;51.384;7.122;2024-01-30T10:05:49;6.03;;;5.43;;
2638;SDS011;1329;51.384;7.122;2024-01-30T10:08:19;5.72;;;5.10;;
2638;SDS011;1329;51.384;7.122;2024-01-30T10:10:46;5.82;;;5.22;;
2638;SDS011;1329;51.384;7.122;2024-01-30T10:13:13;6.10;;;5.60;;
2638;SDS011;1329;51.384;7.122;2024-01-30T10:15:41;5.82;;;5.30;;
2638;SDS011;1329;51.384;7.122;2024-01-30T10:18:08;5.85;;;5.30;;
2638;SDS011;1329;51.384;7.122;2024-01-30T10:20:35;6.33;;;5.80;;
2638;SDS011;1329;51.384;7.122;2024-01-30T10:23:02;5.68;;;5.05;;
2638;SDS011;1329;51.384;7.122;2024-01-30T10:25:31;5.65;;;4.93;;
2638;SDS011;1329;51.384;7.122;2024-01-30T10:27:58;6.07;;;5.55;;
2638;SDS011;1329;51.384;7.122;2024-01-30T10:30:26;5.97;;;5.20;;
2638;SDS011;1329;51.384;7.122;2024-01-30T10:32:53;5.80;;;5.20;;
2638;SDS011;1329;51.384;7.122;2024-01-30T10:35:20;5.88;;;5.32;;
2638;SDS011;1329;51.384;7.122;2024-01-30T10:37:47;5.55;;;5.05;;
2638;SDS011;1329;51.384;7.122;2024-01-30T10:40:15;5.88;;;5.32;;
2638;SDS011;1329;51.384;7.122;2024-01-30T10:42:44;5.93;;;5.43;;
2638;SDS011;1329;51.384;7.122;2024-01-30T10:45:12;5.90;;;5.35;;
2638;SDS011;1329;51.384;7.122;2024-01-30T10:47:41;5.90;;;5.20;;
2638;SDS011;1329;51.384;7.122;2024-01-30T10:50:14;5.97;;;5.38;;
2638;SDS011;1329;51.384;7.122;2024-01-30T10:52:42;5.60;;;4.95;;
2638;SDS011;1329;51.384;7.122;2024-01-30T10:55:09;5.60;;;5.10;;
2638;SDS011;1329;51.384;7.122;2024-01-30T10:57:37;5.10;;;4.60;;
2638;SDS011;1329;51.384;7.122;2024-01-30T11:00:06;5.28;;;4.78;;
2638;SDS011;1329;51.384;7.122;2024-01-30T11:02:37;7.15;;;4.93;;
2638;SDS011;1329;51.384;7.122;2024-01-30T11:05:07;5.65;;;5.00;;
2638;SDS011;1329;51.384;7.122;2024-01-30T11:07:34;5.80;;;5.20;;
2638;SDS011;1329;51.384;7.122;2024-01-30T11:10:02;6.90;;;5.75;;
2638;SDS011;1329;51.384;7.122;2024-01-30T11:12:32;6.03;;;4.97;;
2638;SDS011;1329;51.384;7.122;2024-01-30T11:15:08;6.95;;;5.13;;
2638;SDS011;1329;51.384;7.122;2024-01-30T11:17:39;7.30;;;5.68;;
2638;SDS011;1329;51.384;7.122;2024-01-30T11:20:11;6.35;;;5.60;;
2638;SDS011;1329;51.384;7.122;2024-01-30T11:22:42;5.88;;;5.22;;
2638;SDS011;1329;51.384;7.122;2024-01-30T11:25:11;6.38;;;5.13;;
2638;SDS011;1329;51.384;7.122;2024-01-30T11:27:40;8.50;;;5.35;;
2638;SDS011;1329;51.384;7.122;2024-01-30T11:30:10;5.75;;;4.80;;
2638;SDS011;1329;51.384;7.122;2024-01-30T11:32:37;8.15;;;5.13;;
2638;SDS011;1329;51.384;7.122;2024-01-30T11:35:04;6.88;;;5.05;;
2638;SDS011;1329;51.384;7.122;2024-01-30T11:37:35;5.68;;;5.18;;
2638;SDS011;1329;51.384;7.122;2024-01-30T11:40:04;5.85;;;4.97;;
2638;SDS011;1329;51.384;7.122;2024-01-30T11:42:33;6.20;;;4.68;;
2638;SDS011;1329;51.384;7.122;2024-01-30T11:45:05;5.95;;;5.35;;
2638;SDS011;1329;51.384;7.122;2024-01-30T11:47:35;6.10;;;5.22;;
2638;SDS011;1329;51.384;7.122;2024-01-30T11:50:03;5.78;;;5.18;;
2638;SDS011;1329;51.384;7.122;2024-01-30T11:52:31;8.30;;;5.60;;
2638;SDS011;1329;51.384;7.122;2024-01-30T11:54:59;6.72;;;5.20;;
2638;SDS011;1329;51.384;7.122;2024-01-30T11:57:26;6.00;;;5.20;;
2638;SDS011;1329;51.384;7.122;2024-01-30T11:59:53;5.80;;;4.82;;
2638;SDS011;1329;51.384;7.122;2024-01-30T12:02:20;7.35;;;5.32;;
2638;SDS011;1329;51.384;7.122;2024-01-30T12:04:48;5.63;;;5.03;;
2638;SDS011;1329;51.384;7.122;2024-01-30T12:07:15;5.32;;;4.78;;
2638;SDS011;1329;51.384;7.122;2024-01-30T12:09:42;6.32;;;5.18;;
2638;SDS011;1329;51.384;7.122;2024-01-30T12:12:18;6.30;;;5.43;;
2638;SDS011;1329;51.384;7.122;2024-01-30T12:14:45;6.50;;;5.10;;
2638;SDS011;1329;51.384;7.122;2024-01-30T12:17:22;6.05;;;5.05;;
2638;SDS011;1329;51.384;7.122;2024-01-30T12:19:52;6.25;;;5.40;;
2638;SDS011;1329;51.384;7.122;2024-01-30T12:22:31;7.95;;;5.70;;
2638;SDS011;1329;51.384;7.122;2024-01-30T12:25:01;6.72;;;5.78;;
2638;SDS011;1329;51.384;7.122;2024-01-30T12:27:30;7.43;;;5.72;;
2638;SDS011;1329;51.384;7.122;2024-01-30T12:29:57;8.43;;;6.10;;
2638;SDS011;1329;51.384;7.122;2024-01-30T12:32:24;7.10;;;5.43;;
2638;SDS011;1329;51.384;7.122;2024-01-30T12:34:55;7.28;;;6.30;;
2638;SDS011;1329;51.384;7.122;2024-01-30T12:37:23;7.25;;;5.85;;
2638;SDS011;1329;51.384;7.122;2024-01-30T12:39:51;5.90;;;5.20;;
2638;SDS011;1329;51.384;7.122;2024-01-30T12:42:19;8.93;;;5.70;;
2638;SDS011;1329;51.384;7.122;2024-01-30T12:44:47;6.50;;;5.80;;
2638;SDS011;1329;51.384;7.122;2024-01-30T12:47:14;6.75;;;5.18;;
2638;SDS011;1329;51.384;7.122;2024-01-30T12:49:42;7.32;;;6.15;;
2638;SDS011;1329;51.384;7.122;2024-01-30T12:52:10;6.25;;;5.65;;
2638;SDS011;1329;51.384;7.122;2024-01-30T12:54:38;7.78;;;5.97;;
2638;SDS011;1329;51.384;7.122;2024-01-30T12:57:05;8.23;;;6.20;;
2638;SDS011;1329;51.384;7.122;2024-01-30T12:59:32;8.20;;;5.57;;
2638;SDS011;1329;51.384;7.122;2024-01-30T13:02:00;7.55;;;6.28;;
2638;SDS011;1329;51.384;7.122;2024-01-30T13:04:28;6.40;;;5.80;;
2638;SDS011;1329;51.384;7.122;2024-01-30T13:06:55;6.75;;;6.05;;
2638;SDS011;1329;51.384;7.122;2024-01-30T13:09:23;8.10;;;6.40;;
2638;SDS011;1329;51.384;7.122;2024-01-30T13:11:50;7.10;;;6.30;;
2638;SDS011;1329;51.384;7.122;2024-01-30T13:14:17;8.13;;;6.00;;
2638;SDS011;1329;51.384;7.122;2024-01-30T13:16:44;7.55;;;6.45;;
2638;SDS011;1329;51.384;7.122;2024-01-30T13:19:12;8.60;;;6.60;;
2638;SDS011;1329;51.384;7.122;2024-01-30T13:21:39;8.25;;;6.40;;
2638;SDS011;1329;51.384;7.122;2024-01-30T13:24:06;7.35;;;6.22;;
2638;SDS011;1329;51.384;7.122;2024-01-30T13:26:34;8.68;;;6.63;;
2638;SDS011;1329;51.384;7.122;2024-01-30T13:29:02;6.78;;;5.93;;
2638;SDS011;1329;51.384;7.122;2024-01-30T13:31:29;7.68;;;6.47;;
2638;SDS011;1329;51.384;7.122;2024-01-30T13:33:56;7.05;;;6.32;;
2638;SDS011;1329;51.384;7.122;2024-01-30T13:36:25;7.65;;;6.85;;
2638;SDS011;1329;51.384;7.122;2024-01-30T13:38:52;7.38;;;6.60;;
2638;SDS011;1329;51.384;7.122;2024-01-30T13:41:19;7.30;;;6.40;;
2638;SDS011;1329;51.384;7.122;2024-01-30T13:43:49;7.43;;;6.70;;
2638;SDS011;1329;51.384;7.122;2024-01-30T13:46:16;7.28;;;6.57;;
2638;SDS011;1329;51.384;7.122;2024-01-30T13:48:43;6.82;;;6.15;;
2638;SDS011;1329;51.384;7.122;2024-01-30T13:51:10;7.38;;;6.00;;
2638;SDS011;1329;51.384;7.122;2024-01-30T13:53:38;8.13;;;5.88;;
2638;SDS011;1329;51.384;7.122;2024-01-30T13:56:05;7.55;;;6.15;;
2638;SDS011;1329;51.384;7.122;2024-01-30T13:58:32;7.57;;;6.78;;
2638;SDS011;1329;51.384;7.122;2024-01-30T14:01:02;7.82;;;6.43;;
2638;SDS011;1329;51.384;7.122;2024-01-30T14:03:30;7.68;;;6.00;;
2638;SDS011;1329;51.384;7.122;2024-01-30T14:05:57;8.13;;;6.07;;
2638;SDS011;1329;51.384;7.122;2024-01-30T14:08:24;7.97;;;7.05;;
2638;SDS011;1329;51.384;7.122;2024-01-30T14:10:53;7.15;;;6.45;;
2638;SDS011;1329;51.384;7.122;2024-01-30T14:13:20;8.75;;;6.22;;
2638;SDS011;1329;51.384;7.122;2024-01-30T14:15:47;7.93;;;6.40;;
2638;SDS011;1329;51.384;7.122;2024-01-30T14:18:16;7.32;;;6.50;;
2638;SDS011;1329;51.384;7.122;2024-01-30T14:20:43;7.82;;;7.03;;
2638;SDS011;1329;51.384;7.122;2024-01-30T14:23:10;8.18;;;6.78;;
2638;SDS011;1329;51.384;7.122;2024-01-30T14:25:37;7.35;;;6.43;;
2638;SDS011;1329;51.384;7.122;2024-01-30T14:28:04;7.25;;;6.53;;
2638;SDS011;1329;51.384;7.122;2024-01-30T14:30:32;8.55;;;6.63;;
2638;SDS011;1329;51.384;7.122;2024-01-30T14:33:01;8.77;;;6.60;;
2638;SDS011;1329;51.384;7.122;2024-01-30T14:35:30;7.43;;;6.72;;
2638;SDS011;1329;51.384;7.122;2024-01-30T14:37:58;7.55;;;6.55;;
2638;SDS011;1329;51.384;7.122;2024-01-30T14:40:26;7.18;;;6.18;;
2638;SDS011;1329;51.384;7.122;2024-01-30T14:42:53;8.43;;;6.80;;
2638;SDS011;1329;51.384;7.122;2024-01-30T14:45:20;7.70;;;6.90;;
2638;SDS011;1329;51.384;7.122;2024-01-30T14:47:47;7.13;;;6.30;;
2638;SDS011;1329;51.384;7.122;2024-01-30T14:50:14;7.65;;;6.85;;
2638;SDS011;1329;51.384;7.122;2024-01-30T14:52:43;7.82;;;7.03;;
2638;SDS011;1329;51.384;7.122;2024-01-30T14:55:10;8.63;;;7.13;;
2638;SDS011;1329;51.384;7.122;2024-01-30T14:57:37;8.23;;;7.40;;
2638;SDS011;1329;51.384;7.122;2024-01-30T15:00:04;7.80;;;6.68;;
2638;SDS011;1329;51.384;7.122;2024-01-30T15:02:33;9.10;;;7.40;;
2638;SDS011;1329;51.384;7.122;2024-01-30T15:05:01;7.82;;;6.95;;
2638;SDS011;1329;51.384;7.122;2024-01-30T15:07:28;7.93;;;7.18;;
2638;SDS011;1329;51.384;7.122;2024-01-30T15:09:56;9.30;;;7.78;;
2638;SDS011;1329;51.384;7.122;2024-01-30T15:12:23;8.73;;;6.93;;
2638;SDS011;1329;51.384;7.122;2024-01-30T15:14:50;8.63;;;7.53;;
2638;SDS011;1329;51.384;7.122;2024-01-30T15:17:17;7.82;;;7.05;;